Flight Track Log - Related Links

Times and Time Zones

All times are in EDT time to prevent confusion due to time zone crossing. See the N534QS flight status page for this flight to view local times or setup timezone preferences in your user account.

Time Position Orientation Groundspeed Altitude Reporting Facility
EDT Latitude Longitude Course Direction KTS MPH feet Rate Location/Type
Fri 07:10:47 AM 40.2667 -74.8333 217° Southwest 203 234 1,000  Level Philadelphia TRACON
Fri 07:11:41 AM 40.2167 -74.8833 217° Southwest 221 254 3,000 2,737 Climbing Philadelphia TRACON
Fri 07:12:41 AM 40.2000 -74.9500 252° West 242 278 6,200 2,721 Climbing Philadelphia TRACON
Fri 07:13:07 AM 40.2069 -74.9889 283° West 252 290 6,900 571 Climbing New York Center
Fri 07:14:05 AM 40.2081 -75.0706 271° West 250 288 7,000 966 Climbing New York Center
Fri 07:15:05 AM 40.2108 -75.1686 272° West 284 327 8,800 2,331 Climbing New York Center
Fri 07:16:06 AM 40.2117 -75.2583 271° West 273 314 11,700 2,083 Climbing New York Center
Fri 07:17:06 AM 40.2428 -75.3692 290° West 303 349 13,000 2,000 Climbing New York Center
Fri 07:18:06 AM 40.2753 -75.4964 289° West 334 384 15,700 1,983 Climbing New York Center
Fri 07:19:07 AM 40.3081 -75.6131 290° West 339 390 17,000 645 Climbing New York Center
Fri 07:20:07 AM 40.3386 -75.7322 289° West 339 390 17,000 350 Level New York Center
Fri 07:21:07 AM 40.3692 -75.8433 290° West 351 404 17,700 1,881 Climbing New York Center
Fri 07:22:05 AM 40.4031 -75.9742 289° West 362 417 20,700 3,076 Climbing New York Center
Fri 07:23:06 AM 40.4386 -76.1103 289° West 379 436 23,800 3,443 Climbing New York Center
Fri 07:24:07 AM 40.5019 -76.2300 305° West 392 451 27,700 3,750 Climbing New York Center
Fri 07:25:06 AM 40.5836 -76.3131 322° Northwest 385 443 31,300 2,132 Climbing New York Center
Fri 07:26:08 AM 40.6694 -76.3939 324° Northwest 381 438 32,000 350 Climbing New York Center
Fri 07:27:06 AM 40.7553 -76.4719 325° Northwest 381 438 32,000  Level New York Center
Fri 07:28:05 AM 40.8408 -76.5533 324° Northwest 381 438 32,000  Level New York Center
Fri 07:29:05 AM 40.9225 -76.6344 323° Northwest 376 433 32,000  Level New York Center
Fri 07:30:06 AM 41.0081 -76.7161 324° Northwest 376 433 32,000  Level New York Center
Fri 07:31:07 AM 41.0972 -76.8036 324° Northwest 383 441 32,000  Level New York Center
Fri 07:32:07 AM 41.1944 -76.8978 324° Northwest 409 471 32,000  Level New York Center
Fri 07:33:06 AM 41.2936 -76.9953 324° Northwest 426 490 32,000  Level New York Center
Fri 07:34:07 AM 41.3886 -77.0897 323° Northwest 431 496 32,000  Level New York Center
Fri 07:35:07 AM 41.4858 -77.1819 325° Northwest 431 496 32,000  Level New York Center
Fri 07:36:05 AM 41.5806 -77.2769 323° Northwest 431 496 32,000  Level New York Center
Fri 07:38:20 AM 41.8017 -77.4939 324° Northwest 422 486 32,000  Level Cleveland Center
Fri 07:39:20 AM 41.8981 -77.5925 323° Northwest 422 486 32,000  Level Cleveland Center
Fri 07:40:20 AM 41.9922 -77.6858 324° Northwest 428 493 32,000  Level Cleveland Center
Fri 07:41:20 AM 42.0864 -77.7822 323° Northwest 428 493 32,000  Level Cleveland Center
Fri 07:42:20 AM 42.1803 -77.8764 323° Northwest 428 493 32,000 -150 Level Cleveland Center
Fri 07:43:20 AM 42.2764 -77.9733 323° Northwest 428 493 31,700 -900 Descending Cleveland Center
Fri 07:44:20 AM 42.3681 -78.0678 323° Northwest 428 493 30,200 -1,550 Descending Cleveland Center
Fri 07:45:20 AM 42.4597 -78.1600 323° Northwest 428 493 28,600 -1,100 Descending Cleveland Center
Fri 07:46:20 AM 42.5322 -78.2361 322° Northwest 428 493 28,000 -300 Descending Cleveland Center
Fri 07:47:20 AM 42.6344 -78.3394 323° Northwest 428 493 28,000 -800 Level Cleveland Center
Fri 07:48:20 AM 42.7258 -78.4353 322° Northwest 428 493 26,400 -1,700 Descending Cleveland Center
Fri 07:49:20 AM 42.8150 -78.5283 323° Northwest 421 484 24,600 -1,800 Descending Cleveland Center
Fri 07:50:20 AM 42.9042 -78.6189 323° Northwest 416 479 22,800 -1,750 Descending Cleveland Center
Fri 07:51:20 AM 42.9725 -78.7247 311° West 389 448 21,100 -1,756 Descending Cleveland Center
Fri 07:53:04 AM 43.0833 -78.9000 311° West 370 426 18,000 -1,756 Descending Toronto Center
Fri 07:54:04 AM 43.1333 -79.0333 297° West 360 414 16,300 -1,550 Descending Toronto Center
Fri 07:55:04 AM 43.1833 -79.1333 304° West 350 403 14,900 -1,550 Descending Toronto Center
Fri 07:56:04 AM 43.2500 -79.2500 308° West 350 403 13,200 -1,500 Descending Toronto Center
Fri 07:57:04 AM 43.3167 -79.3333 318° Northwest 310 357 11,900 -1,200 Descending Toronto Center
Fri 07:58:04 AM 43.3667 -79.3833 324° Northwest 270 311 10,800 -1,200 Descending Toronto Center
Fri 07:59:04 AM 43.4500 -79.4000 352° North 270 311 9,500 -1,200 Descending Toronto Center
Fri 08:00:04 AM 43.5167 -79.4333 340° North 260 299 8,400 -850 Descending Toronto Center
Fri 08:01:04 AM 43.5500 -79.4667 324° Northwest 230 265 7,800 -1,000 Descending Toronto Center
Fri 08:02:04 AM 43.5667 -79.5667 283° West 220 253 6,400 -1,100 Descending Toronto Center
Fri 08:03:04 AM 43.5333 -79.6167 227° Southwest 220 253 5,600 -1,100 Descending Toronto Center
Fri 08:04:04 AM 43.5000 -79.6833 235° Southwest 220 253 4,200 -1,300 Descending Toronto Center
Fri 08:05:04 AM 43.5000 -79.7667 270° West 220 253 3,000 -600 Descending Toronto Center
Fri 08:06:04 AM 43.5500 -79.8000 334° Northwest 200 230 3,000 -100 Level Toronto Center
Fri 08:07:04 AM 43.5833 -79.7500 47° Northeast 170 196 2,800 -500 Descending Toronto Center
Fri 08:08:04 AM 43.6167 -79.7333 20° North 170 196 2,000 -800 Descending Toronto Center
Fri 08:09:04 AM 43.6333 -79.6833 65° Northeast 130 150 1,200 -500 Descending Toronto Center
Fri 08:11:04 AM 43.6833 -79.6333 36° Northeast 70 81 500 -350 Descending Toronto Center

Login

Don't have an account? Register now (free) for customized features, flight alerts, and more!